Time,TemperatureF,DewpointF,PressureIn,WindDirection,WindDirectionDegrees,WindSpeedMPH,WindSpeedGustMPH,Humidity,HourlyPrecipIn,Conditions,Clouds,dailyrainin,SoftwareType,DateUTC
2013-01-12 00:02:00,9.0,9.0,-100.00,WSW,250,32.0,38.0,99,0.06,,,-99.99,,2013-01-12 00:02:00,
2013-01-12 00:12:00,9.0,9.0,-100.00,SW,220,32.0,40.0,99,0.01,,,-99.99,,2013-01-12 00:12:00,
2013-01-12 00:22:00,9.0,9.0,-100.00,SSW,205,32.0,44.0,99,0.01,,,-99.99,,2013-01-12 00:22:00,
2013-01-12 00:32:00,9.0,9.0,-100.00,South,185,37.0,43.0,99,0.01,,,-99.99,,2013-01-12 00:32:00,
2013-01-12 00:42:00,9.0,9.0,-100.00,SSW,200,32.0,43.0,99,0.01,,,-99.99,,2013-01-12 00:42:00,
2013-01-12 00:52:00,9.0,8.0,-100.00,South,180,34.0,47.0,99,0.01,,,-99.99,,2013-01-12 00:52:00,
2013-01-12 01:02:00,9.0,9.0,-100.00,SSW,205,31.0,39.0,99,0.00,,,-99.99,,2013-01-12 01:02:00,
2013-01-12 01:12:00,9.0,9.0,-100.00,South,175,27.0,35.0,99,0.00,,,-99.99,,2013-01-12 01:12:00,
2013-01-12 01:22:00,9.0,8.0,-100.00,South,170,28.0,35.0,99,0.00,,,-99.99,,2013-01-12 01:22:00,
2013-01-12 01:32:00,9.0,8.0,-100.00,SSE,155,29.0,37.0,99,0.00,,,-99.99,,2013-01-12 01:32:00,
2013-01-12 01:42:00,8.0,8.0,-100.00,SW,235,29.0,35.0,99,0.00,,,-99.99,,2013-01-12 01:42:00,
2013-01-12 01:52:00,8.0,8.0,-100.00,WSW,245,29.0,37.0,99,0.00,,,-99.99,,2013-01-12 01:52:00,
2013-01-12 02:02:00,8.0,8.0,-100.00,SSE,150,31.0,39.0,99,0.01,,,-99.99,,2013-01-12 02:02:00,
2013-01-12 02:12:00,8.0,8.0,-100.00,South,170,35.0,44.0,99,0.01,,,-99.99,,2013-01-12 02:12:00,
2013-01-12 02:22:00,8.0,8.0,-100.00,SSE,160,29.0,44.0,99,0.00,,,-99.99,,2013-01-12 02:22:00,
2013-01-12 02:32:00,8.0,8.0,-100.00,SSE,150,31.0,38.0,99,0.01,,,-99.99,,2013-01-12 02:32:00,
2013-01-12 02:42:00,8.0,8.0,-100.00,SE,130,30.0,37.0,99,0.00,,,-99.99,,2013-01-12 02:42:00,
2013-01-12 02:52:00,8.0,8.0,-100.00,SSW,195,33.0,38.0,99,0.01,,,-99.99,,2013-01-12 02:52:00,
2013-01-12 03:02:00,8.0,8.0,-100.00,SE,140,29.0,40.0,99,0.01,,,-99.99,,2013-01-12 03:02:00,
2013-01-12 03:12:00,8.0,8.0,-100.00,SSE,150,34.0,40.0,99,0.03,,,-99.99,,2013-01-12 03:12:00,
2013-01-12 03:22:00,8.0,8.0,-100.00,SSW,205,37.0,44.0,99,0.07,,,-99.99,,2013-01-12 03:22:00,
2013-01-12 03:33:00,8.0,8.0,-100.00,South,175,32.0,40.0,99,0.03,,,-99.99,,2013-01-12 03:33:00,
2013-01-12 03:42:00,8.0,8.0,-100.00,ESE,120,32.0,42.0,99,0.03,,,-99.99,,2013-01-12 03:42:00,
2013-01-12 03:52:00,8.0,8.0,-100.00,SSE,165,32.0,40.0,99,0.04,,,-99.99,,2013-01-12 03:52:00,
2013-01-12 04:02:00,8.0,8.0,-100.00,SE,140,28.0,39.0,99,0.00,,,-99.99,,2013-01-12 04:02:00,
2013-01-12 04:12:00,8.0,8.0,-100.00,SSE,150,29.0,36.0,99,0.01,,,-99.99,,2013-01-12 04:12:00,
2013-01-12 04:22:00,8.0,8.0,-100.00,South,190,31.0,41.0,99,0.03,,,-99.99,,2013-01-12 04:22:00,
2013-01-12 04:32:00,8.0,8.0,-100.00,SE,130,30.0,37.0,99,0.03,,,-99.99,,2013-01-12 04:32:00,
2013-01-12 04:42:00,8.0,8.0,-100.00,South,190,30.0,39.0,99,0.01,,,-99.99,,2013-01-12 04:42:00,
2013-01-12 04:52:00,8.0,8.0,-100.00,South,175,30.0,37.0,99,0.01,,,-99.99,,2013-01-12 04:52:00,
2013-01-12 05:03:00,8.0,8.0,-100.00,SSE,160,32.0,42.0,99,0.01,,,-99.99,,2013-01-12 05:03:00,
2013-01-12 05:12:00,8.0,8.0,-100.00,SE,135,29.0,42.0,99,0.00,,,-99.99,,2013-01-12 05:12:00,
2013-01-12 05:22:00,8.0,8.0,-100.00,SSE,155,30.0,40.0,99,0.00,,,-99.99,,2013-01-12 05:22:00,
2013-01-12 05:32:00,8.0,8.0,-100.00,West,265,31.0,38.0,99,0.00,,,-99.99,,2013-01-12 05:32:00,
2013-01-12 05:42:00,7.0,7.0,-100.00,SE,140,28.0,39.0,99,0.00,,,-99.99,,2013-01-12 05:42:00,
2013-01-12 05:52:00,7.0,7.0,-100.00,South,190,30.0,37.0,99,0.01,,,-99.99,,2013-01-12 05:52:00,
2013-01-12 06:02:00,7.0,7.0,-100.00,SSW,205,34.0,40.0,99,0.01,,,-99.99,,2013-01-12 06:02:00,
2013-01-12 06:12:00,7.0,7.0,-100.00,South,180,29.0,43.0,99,0.00,,,-99.99,,2013-01-12 06:12:00,
2013-01-12 06:22:00,7.0,7.0,-100.00,West,265,29.0,38.0,99,0.00,,,-99.99,,2013-01-12 06:22:00,
2013-01-12 06:32:00,6.0,6.0,-100.00,SW,220,29.0,34.0,99,0.00,,,-99.99,,2013-01-12 06:32:00,
2013-01-12 06:42:00,6.0,6.0,-100.00,West,260,24.0,31.0,99,0.00,,,-99.99,,2013-01-12 06:42:00,
2013-01-12 06:52:00,4.0,4.0,-100.00,West,275,17.0,25.0,99,0.00,,,-99.99,,2013-01-12 06:52:00,
2013-01-12 07:02:00,3.0,3.0,-100.00,West,280,20.0,24.0,99,0.00,,,-99.99,,2013-01-12 07:02:00,
2013-01-12 07:12:00,2.0,2.0,-100.00,West,280,21.0,29.0,99,0.00,,,-99.99,,2013-01-12 07:12:00,
2013-01-12 07:22:00,2.0,2.0,-100.00,West,280,19.0,25.0,99,0.00,,,-99.99,,2013-01-12 07:22:00,
2013-01-12 07:32:00,2.0,2.0,-100.00,West,270,20.0,25.0,99,0.00,,,-99.99,,2013-01-12 07:32:00,
2013-01-12 07:42:00,1.0,1.0,-100.00,West,270,19.0,24.0,99,0.00,,,-99.99,,2013-01-12 07:42:00,
2013-01-12 07:52:00,4.0,4.0,-100.00,South,175,27.0,34.0,99,0.00,,,-99.99,,2013-01-12 07:52:00,
2013-01-12 08:02:00,4.0,4.0,-100.00,South,185,28.0,35.0,98,0.00,,,-99.99,,2013-01-12 08:02:00,
2013-01-12 08:11:00,4.0,4.0,-100.00,SSE,165,26.0,32.0,98,0.00,,,-99.99,,2013-01-12 08:11:00,
2013-01-12 08:22:00,4.0,3.0,-100.00,SSE,150,27.0,36.0,97,0.00,,,-99.99,,2013-01-12 08:22:00,
2013-01-12 08:32:00,4.0,3.0,-100.00,SSW,205,27.0,34.0,97,0.00,,,-99.99,,2013-01-12 08:32:00,
2013-01-12 08:42:00,4.0,3.0,-100.00,SSW,195,26.0,34.0,97,0.00,,,-99.99,,2013-01-12 08:42:00,
2013-01-12 08:52:00,4.0,3.0,-100.00,SSE,165,25.0,31.0,96,0.00,,,-99.99,,2013-01-12 08:52:00,
2013-01-12 09:02:00,1.0,1.0,-100.00,West,280,21.0,29.0,97,0.00,,,-99.99,,2013-01-12 09:02:00,
2013-01-12 09:12:00,0.0,-1.0,-100.00,West,275,19.0,25.0,97,0.00,,,-99.99,,2013-01-12 09:12:00,
2013-01-12 09:22:00,0.0,0.0,-100.00,West,270,17.0,27.0,98,0.00,,,-99.99,,2013-01-12 09:22:00,
2013-01-12 09:32:00,3.0,2.0,-100.00,SSE,150,27.0,31.0,96,0.00,,,-99.99,,2013-01-12 09:32:00,
2013-01-12 09:52:00,3.0,2.0,-100.00,South,190,24.0,32.0,96,0.00,,,-99.99,,2013-01-12 09:52:00,
2013-01-12 10:02:00,3.0,2.0,-100.00,SSE,155,24.0,32.0,95,0.00,,,-99.99,,2013-01-12 10:02:00,
2013-01-12 10:12:00,2.0,2.0,-100.00,SSW,200,24.0,32.0,95,0.00,,,-99.99,,2013-01-12 10:12:00,
2013-01-12 10:22:00,2.0,1.0,-100.00,SW,220,22.0,27.0,95,0.00,,,-99.99,,2013-01-12 10:22:00,
2013-01-12 10:32:00,2.0,1.0,-100.00,WSW,240,18.0,28.0,95,0.00,,,-99.99,,2013-01-12 10:32:00,
2013-01-12 10:42:00,2.0,1.0,-100.00,WSW,250,18.0,27.0,95,0.00,,,-99.99,,2013-01-12 10:42:00,
2013-01-12 10:52:00,1.0,0.0,-100.00,West,270,13.0,19.0,95,0.00,,,-99.99,,2013-01-12 10:52:00,
2013-01-12 11:02:00,1.0,0.0,-100.00,West,275,12.0,16.0,95,0.00,,,-99.99,,2013-01-12 11:02:00,
2013-01-12 11:12:00,0.0,-1.0,-100.00,West,270,15.0,21.0,97,0.00,,,-99.99,,2013-01-12 11:12:00,
2013-01-12 11:22:00,0.0,-1.0,-100.00,WNW,285,11.0,17.0,97,0.00,,,-99.99,,2013-01-12 11:22:00,
2013-01-12 11:32:00,-1.0,-1.0,-100.00,West,280,11.0,17.0,97,0.00,,,-99.99,,2013-01-12 11:32:00,
2013-01-12 11:42:00,-1.0,-1.0,-100.00,WNW,285,13.0,17.0,98,0.00,,,-99.99,,2013-01-12 11:42:00,
2013-01-12 11:52:00,-1.0,-2.0,-100.00,WNW,300,10.0,17.0,98,0.00,,,-99.99,,2013-01-12 11:52:00,
2013-01-12 12:02:00,-2.0,-2.0,-100.00,West,270,11.0,17.0,97,0.00,,,-99.99,,2013-01-12 12:02:00,
2013-01-12 12:12:00,-3.0,-3.0,-100.00,West,260,11.0,16.0,98,0.00,,,-99.99,,2013-01-12 12:12:00,
2013-01-12 12:22:00,-3.0,-4.0,-100.00,SSW,195,9.0,17.0,98,0.00,,,-99.99,,2013-01-12 12:22:00,
2013-01-12 12:32:00,-4.0,-4.0,-100.00,WSW,255,9.0,14.0,98,0.00,,,-99.99,,2013-01-12 12:32:00,
2013-01-12 12:42:00,-4.0,-4.0,-100.00,West,275,11.0,14.0,98,0.00,,,-99.99,,2013-01-12 12:42:00,
2013-01-12 12:52:00,-5.0,-5.0,-100.00,West,275,15.0,17.0,98,0.00,,,-99.99,,2013-01-12 12:52:00,
2013-01-12 13:02:00,-4.0,-5.0,-100.00,West,265,16.0,19.0,98,0.00,,,-99.99,,2013-01-12 13:02:00,
2013-01-12 13:12:00,-4.0,-4.0,-100.00,West,275,17.0,21.0,98,0.00,,,-99.99,,2013-01-12 13:12:00,
2013-01-12 13:22:00,-4.0,-5.0,-100.00,West,275,16.0,20.0,98,0.00,,,-99.99,,2013-01-12 13:22:00,
2013-01-12 13:33:00,-3.0,-3.0,-100.00,West,270,15.0,19.0,98,0.00,,,-99.99,,2013-01-12 13:33:00,
2013-01-12 13:42:00,0.0,-1.0,-100.00,SSW,195,19.0,25.0,97,0.00,,,-99.99,,2013-01-12 13:42:00,
2013-01-12 13:52:00,0.0,-1.0,-100.00,South,180,17.0,22.0,95,0.00,,,-99.99,,2013-01-12 13:52:00,
2013-01-12 14:02:00,0.0,-1.0,-100.00,SSE,160,17.0,23.0,94,0.00,,,-99.99,,2013-01-12 14:02:00,
2013-01-12 14:12:00,0.0,-1.0,-100.00,SSE,155,16.0,23.0,95,0.00,,,-99.99,,2013-01-12 14:12:00,
2013-01-12 14:22:00,-1.0,-2.0,-100.00,SE,135,16.0,18.0,94,0.00,,,-99.99,,2013-01-12 14:22:00,
2013-01-12 14:33:00,-1.0,-2.0,-100.00,West,270,12.0,17.0,94,0.00,,,-99.99,,2013-01-12 14:33:00,
2013-01-12 14:43:00,-3.0,-4.0,-100.00,NW,305,9.0,13.0,95,0.00,,,-99.99,,2013-01-12 14:43:00,
2013-01-12 14:53:00,-4.0,-5.0,-100.00,NNW,335,7.0,12.0,96,0.00,,,-99.99,,2013-01-12 14:53:00,
2013-01-12 15:03:00,-5.0,-6.0,-100.00,NNW,340,7.0,11.0,96,0.00,,,-99.99,,2013-01-12 15:03:00,
2013-01-12 15:12:00,-5.0,-5.0,-100.00,NW,315,6.0,10.0,96,0.00,,,-99.99,,2013-01-12 15:12:00,
2013-01-12 15:22:00,-5.0,-5.0,-100.00,NW,305,6.0,9.0,97,0.00,,,-99.99,,2013-01-12 15:22:00,
2013-01-12 15:33:00,-4.0,-5.0,-100.00,WNW,300,4.0,7.0,97,0.00,,,-99.99,,2013-01-12 15:33:00,
2013-01-12 15:42:00,-4.0,-5.0,-100.00,NW,320,6.0,8.0,97,0.00,,,-99.99,,2013-01-12 15:42:00,
2013-01-12 15:52:00,-2.0,-2.0,-100.00,NW,320,7.0,9.0,98,0.00,,,-99.99,,2013-01-12 15:52:00,
2013-01-12 16:03:00,0.0,-1.0,-100.00,NW,305,7.0,11.0,98,0.00,,,-99.99,,2013-01-12 16:03:00,
2013-01-12 16:12:00,1.0,0.0,-100.00,West,265,6.0,9.0,97,0.00,,,-99.99,,2013-01-12 16:12:00,
2013-01-12 16:23:00,1.0,0.0,-100.00,SW,235,11.0,13.0,96,0.00,,,-99.99,,2013-01-12 16:23:00,
2013-01-12 16:33:00,2.0,1.0,-100.00,SW,225,12.0,16.0,94,0.00,,,-99.99,,2013-01-12 16:33:00,
2013-01-12 16:42:00,3.0,1.0,-100.00,WSW,255,13.0,17.0,93,0.00,,,-99.99,,2013-01-12 16:42:00,
2013-01-12 16:52:00,4.0,3.0,-100.00,WSW,245,7.0,17.0,93,0.00,,,-99.99,,2013-01-12 16:52:00,
2013-01-12 17:02:00,6.0,5.0,-100.00,WNW,290,6.0,9.0,94,0.00,,,-99.99,,2013-01-12 17:02:00,
2013-01-12 17:12:00,6.0,5.0,-100.00,NW,315,6.0,10.0,94,0.00,,,-99.99,,2013-01-12 17:12:00,
2013-01-12 17:22:00,8.0,7.0,-100.00,West,280,5.0,9.0,94,0.00,,,-99.99,,2013-01-12 17:22:00,
2013-01-12 17:33:00,9.0,8.0,-100.00,West,275,4.0,7.0,95,0.00,,,-99.99,,2013-01-12 17:33:00,
2013-01-12 17:42:00,9.0,8.0,-100.00,WNW,285,4.0,7.0,94,0.00,,,-99.99,,2013-01-12 17:42:00,
2013-01-12 17:53:00,9.0,7.0,-100.00,West,270,4.0,7.0,93,0.00,,,-99.99,,2013-01-12 17:53:00,
2013-01-12 18:03:00,9.0,8.0,-100.00,WNW,295,6.0,8.0,94,0.00,,,-99.99,,2013-01-12 18:03:00,
2013-01-12 18:12:00,9.0,7.0,-100.00,West,275,5.0,8.0,93,0.00,,,-99.99,,2013-01-12 18:12:00,
2013-01-12 18:22:00,8.0,7.0,-100.00,SW,235,2.0,6.0,93,0.00,,,-99.99,,2013-01-12 18:22:00,
2013-01-12 18:33:00,9.0,8.0,-100.00,NW,305,4.0,7.0,94,0.00,,,-99.99,,2013-01-12 18:33:00,
2013-01-12 18:42:00,9.0,7.0,-100.00,NNW,330,2.0,7.0,94,0.00,,,-99.99,,2013-01-12 18:42:00,
2013-01-12 18:52:00,6.0,5.0,-100.00,NNW,330,3.0,9.0,95,0.00,,,-99.99,,2013-01-12 18:52:00,
2013-01-12 19:03:00,7.0,6.0,-100.00,SW,230,1.0,7.0,96,0.00,,,-99.99,,2013-01-12 19:03:00,
2013-01-12 19:12:00,3.0,2.0,-100.00,NE,55,4.0,8.0,95,0.00,,,-99.99,,2013-01-12 19:12:00,
2013-01-12 19:23:00,2.0,1.0,-100.00,NE,35,6.0,8.0,96,0.00,,,-99.99,,2013-01-12 19:23:00,
2013-01-12 19:33:00,3.0,2.0,-100.00,ENE,60,5.0,8.0,96,0.00,,,-99.99,,2013-01-12 19:33:00,
2013-01-12 19:42:00,5.0,4.0,-100.00,NNE,30,3.0,5.0,97,0.00,,,-99.99,,2013-01-12 19:42:00,
2013-01-12 19:52:00,5.0,4.0,-100.00,NNE,30,4.0,7.0,97,0.00,,,-99.99,,2013-01-12 19:52:00,
2013-01-12 20:02:00,4.0,4.0,-100.00,NE,40,4.0,8.0,97,0.00,,,-99.99,,2013-01-12 20:02:00,
2013-01-12 20:12:00,7.0,7.0,-100.00,West,280,6.0,9.0,96,0.00,,,-99.99,,2013-01-12 20:12:00,
2013-01-12 20:22:00,10.0,9.0,-100.00,West,260,8.0,12.0,95,0.00,,,-99.99,,2013-01-12 20:22:00,
2013-01-12 20:32:00,8.0,7.0,-100.00,West,275,11.0,15.0,94,0.00,,,-99.99,,2013-01-12 20:32:00,
2013-01-12 20:42:00,8.0,7.0,-100.00,West,275,11.0,16.0,94,0.00,,,-99.99,,2013-01-12 20:42:00,
2013-01-12 20:53:00,9.0,7.0,-100.00,WSW,255,9.0,16.0,92,0.00,,,-99.99,,2013-01-12 20:53:00,
2013-01-12 21:03:00,10.0,8.0,-100.00,WNW,285,9.0,14.0,92,0.00,,,-99.99,,2013-01-12 21:03:00,
2013-01-12 21:12:00,8.0,6.0,-100.00,West,275,12.0,16.0,92,0.00,,,-99.99,,2013-01-12 21:12:00,
2013-01-12 21:22:00,7.0,5.0,-100.00,West,265,12.0,17.0,92,0.00,,,-99.99,,2013-01-12 21:22:00,
2013-01-12 21:33:00,7.0,5.0,-100.00,West,275,12.0,17.0,92,0.00,,,-99.99,,2013-01-12 21:33:00,
2013-01-12 21:42:00,6.0,5.0,-100.00,West,270,14.0,18.0,92,0.00,,,-99.99,,2013-01-12 21:42:00,
2013-01-12 21:52:00,6.0,4.0,-100.00,WSW,250,13.0,17.0,92,0.00,,,-99.99,,2013-01-12 21:52:00,
2013-01-12 22:02:00,5.0,3.0,-100.00,West,260,14.0,18.0,92,0.00,,,-99.99,,2013-01-12 22:02:00,
2013-01-12 22:12:00,5.0,3.0,-100.00,WSW,250,14.0,21.0,92,0.00,,,-99.99,,2013-01-12 22:12:00,
2013-01-12 22:22:00,4.0,2.0,-100.00,WSW,255,17.0,22.0,91,0.00,,,-99.99,,2013-01-12 22:22:00,
2013-01-12 22:33:00,4.0,2.0,-100.00,West,260,16.0,22.0,91,0.00,,,-99.99,,2013-01-12 22:33:00,
2013-01-12 22:43:00,4.0,2.0,-100.00,West,265,13.0,18.0,91,0.00,,,-99.99,,2013-01-12 22:43:00,
2013-01-12 22:52:00,4.0,2.0,-100.00,WSW,245,17.0,20.0,91,0.00,,,-99.99,,2013-01-12 22:52:00,
2013-01-12 23:03:00,3.0,1.0,-100.00,West,260,17.0,21.0,92,0.00,,,-99.99,,2013-01-12 23:03:00,
2013-01-12 23:12:00,3.0,1.0,-100.00,WSW,255,15.0,21.0,91,0.00,,,-99.99,,2013-01-12 23:12:00,
2013-01-12 23:22:00,3.0,1.0,-100.00,West,265,12.0,17.0,92,0.00,,,-99.99,,2013-01-12 23:22:00,
2013-01-12 23:33:00,3.0,1.0,-100.00,West,275,11.0,15.0,92,0.00,,,-99.99,,2013-01-12 23:33:00,
2013-01-12 23:42:00,3.0,1.0,-100.00,SW,230,13.0,16.0,92,0.00,,,-99.99,,2013-01-12 23:42:00,
2013-01-12 23:53:00,3.0,1.0,-100.00,West,265,16.0,20.0,92,0.00,,,-99.99,,2013-01-12 23:53:00,